Time;durP1;ratioP1;P1;durP2;ratioP2;P2;SDS_P1;SDS_P2;PMS_P1;PMS_P2;Temp;Humidity;BMP_temperature;BMP_pressure;BME280_temperature;BME280_humidity;BME280_pressure;Samples;Min_cycle;Max_cycle;Signal;HPM_P1;HPM_P2
2021/09/22 00:01:24;;;;;;;19.38;13.45;;;;;;;9.37;99.13;102517.63;4944438;28;20055;-80
2021/09/22 00:03:50;;;;;;;17.52;12.93;;;;;;;9.34;99.37;102518.69;4944343;28;20043;-80
2021/09/22 00:06:15;;;;;;;20.00;13.00;;;;;;;9.30;99.19;102522.59;4942990;28;20105;-82
2021/09/22 00:08:40;;;;;;;16.88;13.20;;;;;;;9.27;99.45;102518.31;4935352;28;20074;-84
2021/09/22 00:11:06;;;;;;;20.77;14.63;;;;;;;9.24;99.71;102513.19;4922592;28;20047;-80
2021/09/22 00:13:31;;;;;;;20.63;13.70;;;;;;;9.23;99.73;102515.94;4935402;28;20044;-81
2021/09/22 00:15:57;;;;;;;20.25;13.57;;;;;;;9.19;99.41;102515.34;4933416;28;20628;-80
2021/09/22 00:18:22;;;;;;;19.50;14.10;;;;;;;9.19;99.34;102511.81;4936021;28;20058;-81
2021/09/22 00:20:47;;;;;;;19.55;13.75;;;;;;;9.14;99.64;102514.81;4935344;28;20109;-81
2021/09/22 00:23:13;;;;;;;18.70;13.57;;;;;;;9.11;99.93;102506.16;4934675;28;20178;-82
2021/09/22 00:25:38;;;;;;;19.23;13.73;;;;;;;9.14;99.59;102506.78;4938760;28;20077;-79
2021/09/22 00:28:05;;;;;;;21.13;14.02;;;;;;;9.10;99.49;102510.66;4936328;28;20039;-83
2021/09/22 00:30:31;;;;;;;18.52;12.32;;;;;;;9.08;99.17;102501.88;4937646;28;20085;-80
2021/09/22 00:32:57;;;;;;;18.63;12.95;;;;;;;9.02;99.60;102499.66;4943190;28;20081;-80
2021/09/22 00:35:22;;;;;;;19.52;13.27;;;;;;;9.00;99.59;102499.75;4929514;28;20454;-82
2021/09/22 00:37:48;;;;;;;20.38;14.15;;;;;;;8.96;99.51;102498.28;4938807;28;20055;-78
2021/09/22 00:40:15;;;;;;;23.88;14.15;;;;;;;8.93;99.32;102501.19;4945233;28;20474;-82
2021/09/22 00:42:40;;;;;;;18.38;14.13;;;;;;;8.94;99.74;102494.00;4925401;29;20265;-80
2021/09/22 00:45:12;;;;;;;20.30;14.55;;;;;;;8.88;100.00;102494.44;4931872;28;20707;-79
2021/09/22 00:47:38;;;;;;;21.23;14.18;;;;;;;8.88;99.94;102499.81;4934541;28;20489;-81
2021/09/22 00:50:04;;;;;;;20.10;14.50;;;;;;;8.83;99.91;102494.78;4931995;28;20058;-79
2021/09/22 00:52:30;;;;;;;22.80;14.48;;;;;;;8.82;99.85;102495.75;4935265;28;20482;-79
2021/09/22 00:54:55;;;;;;;18.85;13.77;;;;;;;8.81;99.68;102494.91;4934686;28;20066;-81
2021/09/22 00:57:22;;;;;;;20.13;14.55;;;;;;;8.78;99.60;102500.47;4930093;28;20060;-81
2021/09/22 00:59:48;;;;;;;20.88;14.45;;;;;;;8.73;99.47;102497.28;4925616;29;20043;-80
2021/09/22 01:02:14;;;;;;;19.23;13.93;;;;;;;8.73;99.71;102496.41;4924724;28;20040;-79
2021/09/22 01:04:40;;;;;;;22.67;14.35;;;;;;;8.72;100.00;102500.06;4924738;29;20059;-80
2021/09/22 01:07:08;;;;;;;22.35;14.65;;;;;;;8.66;100.00;102503.16;4924514;29;20385;-81
2021/09/22 01:09:34;;;;;;;21.42;14.07;;;;;;;8.67;99.88;102494.19;4923654;29;20067;-79
2021/09/22 01:12:00;;;;;;;23.55;14.85;;;;;;;8.61;99.92;102492.81;4928197;28;20119;-80
2021/09/22 01:14:26;;;;;;;19.67;14.18;;;;;;;8.63;99.75;102495.34;4926747;28;20052;-81
2021/09/22 01:16:53;;;;;;;19.55;13.23;;;;;;;8.59;99.65;102497.41;4929364;29;20131;-82
2021/09/22 01:19:20;;;;;;;21.15;14.27;;;;;;;8.58;99.74;102495.69;4927735;29;20055;-80
2021/09/22 01:21:51;;;;;;;20.33;14.60;;;;;;;8.58;99.91;102509.09;4926034;29;20055;-83
2021/09/22 01:24:17;;;;;;;20.90;13.88;;;;;;;8.54;100.00;102502.22;4931140;28;20507;-79
2021/09/22 01:26:43;;;;;;;21.00;13.90;;;;;;;8.50;100.00;102496.25;4946012;28;20049;-80
2021/09/22 01:29:09;;;;;;;22.13;15.50;;;;;;;8.52;99.84;102488.13;4946409;28;20471;-79
2021/09/22 01:31:36;;;;;;;20.85;14.30;;;;;;;8.49;99.76;102483.84;4944699;28;20058;-79
2021/09/22 01:34:03;;;;;;;19.42;14.45;;;;;;;8.49;99.64;102486.50;4945721;28;20257;-81
2021/09/22 01:36:29;;;;;;;20.02;13.75;;;;;;;8.49;99.67;102483.00;4920584;29;20051;-79
2021/09/22 01:38:55;;;;;;;22.80;14.98;;;;;;;8.46;99.76;102475.16;4938023;28;20402;-79
2021/09/22 01:41:20;;;;;;;23.95;14.55;;;;;;;8.44;99.77;102477.09;4940001;28;20082;-82
2021/09/22 01:43:46;;;;;;;23.15;14.88;;;;;;;8.41;99.39;102475.50;4923560;28;20776;-79
2021/09/22 01:46:11;;;;;;;23.77;15.57;;;;;;;8.36;99.91;102477.59;4937923;28;20054;-82
2021/09/22 01:48:38;;;;;;;24.15;15.90;;;;;;;8.33;100.00;102467.13;4946604;28;20047;-79
2021/09/22 01:51:05;;;;;;;21.55;15.23;;;;;;;8.33;100.00;102476.00;4947285;28;20058;-80
2021/09/22 01:53:31;;;;;;;22.58;15.57;;;;;;;8.33;99.84;102473.31;4946695;28;20080;-84
2021/09/22 01:55:58;;;;;;;22.70;15.07;;;;;;;8.31;100.00;102472.56;4945849;28;20058;-79
2021/09/22 01:58:25;;;;;;;24.50;16.40;;;;;;;8.30;100.00;102475.38;4937257;28;20043;-80
2021/09/22 02:00:52;;;;;;;23.02;15.45;;;;;;;8.26;100.00;102477.41;4940546;28;20512;-82
2021/09/22 02:03:18;;;;;;;22.70;15.38;;;;;;;8.25;100.00;102482.84;4945200;28;20054;-79
2021/09/22 02:05:45;;;;;;;22.88;15.77;;;;;;;8.24;99.89;102478.47;4934671;28;20047;-83
2021/09/22 02:08:10;;;;;;;23.85;16.35;;;;;;;8.20;99.88;102477.84;4935992;28;20618;-80
2021/09/22 02:10:36;;;;;;;25.20;16.55;;;;;;;8.16;100.00;102470.13;4938694;28;20058;-80
2021/09/22 02:13:02;;;;;;;22.45;15.50;;;;;;;8.15;100.00;102474.63;4945200;28;20052;-79
2021/09/22 02:15:27;;;;;;;23.60;15.57;;;;;;;8.14;100.00;102472.91;4933089;28;20261;-79
2021/09/22 02:17:53;;;;;;;23.05;14.32;;;;;;;8.12;100.00;102478.38;4944577;28;20047;-80
2021/09/22 02:20:19;;;;;;;21.85;14.70;;;;;;;8.11;100.00;102474.00;4937344;28;20189;-79
2021/09/22 02:22:44;;;;;;;20.77;14.57;;;;;;;8.09;100.00;102470.56;4946084;28;20054;-79
2021/09/22 02:25:12;;;;;;;21.85;14.95;;;;;;;8.08;100.00;102468.84;4945432;28;20043;-81
2021/09/22 02:27:38;;;;;;;21.83;14.50;;;;;;;8.09;100.00;102477.75;4945550;28;20051;-80
2021/09/22 02:30:05;;;;;;;22.67;15.40;;;;;;;8.06;100.00;102468.13;4935461;28;20495;-79
2021/09/22 02:32:31;;;;;;;24.20;15.50;;;;;;;8.06;100.00;102464.59;4937064;28;20066;-79
2021/09/22 02:34:56;;;;;;;22.98;15.43;;;;;;;8.04;100.00;102467.34;4939472;28;20402;-80
2021/09/22 02:37:22;;;;;;;24.58;16.77;;;;;;;8.03;100.00;102464.81;4927349;28;20158;-79
2021/09/22 02:39:47;;;;;;;23.73;15.85;;;;;;;8.01;100.00;102470.25;4930278;28;20047;-80
2021/09/22 02:42:13;;;;;;;24.90;15.85;;;;;;;7.99;100.00;102473.97;4942572;28;20067;-79
2021/09/22 02:44:38;;;;;;;26.92;17.63;;;;;;;7.98;100.00;102466.94;4944415;28;20746;-81
2021/09/22 02:47:03;;;;;;;24.35;15.93;;;;;;;7.97;100.00;102462.53;4944927;28;20043;-82
2021/09/22 02:49:29;;;;;;;27.15;15.85;;;;;;;7.98;100.00;102462.44;4945779;28;20085;-80
2021/09/22 02:51:55;;;;;;;23.80;15.95;;;;;;;7.93;100.00;102458.38;4943404;28;20047;-81
2021/09/22 02:54:20;;;;;;;24.42;16.30;;;;;;;7.88;100.00;102461.34;4945482;28;20051;-79
2021/09/22 02:56:46;;;;;;;23.15;16.55;;;;;;;7.87;100.00;102459.66;4945886;28;20082;-80
2021/09/22 02:59:11;;;;;;;28.30;17.83;;;;;;;7.89;100.00;102463.94;4936253;28;20145;-80
2021/09/22 03:01:37;;;;;;;27.08;17.17;;;;;;;7.88;100.00;102462.22;4919769;29;20052;-81
2021/09/22 03:04:02;;;;;;;25.23;17.10;;;;;;;7.86;100.00;102448.09;4925556;28;20079;-82
2021/09/22 03:06:28;;;;;;;26.27;18.08;;;;;;;7.88;100.00;102450.66;4924987;28;20052;-81
2021/09/22 03:08:53;;;;;;;27.80;17.77;;;;;;;7.82;100.00;102446.59;4929098;28;20043;-80
2021/09/22 03:11:19;;;;;;;24.73;16.90;;;;;;;7.82;100.00;102453.75;4936183;28;21038;-80
2021/09/22 03:13:45;;;;;;;26.92;17.20;;;;;;;7.77;100.00;102448.75;4937941;28;20102;-80
2021/09/22 03:16:10;;;;;;;27.35;16.90;;;;;;;7.77;100.00;102445.19;4940893;28;20039;-79
2021/09/22 03:18:36;;;;;;;29.88;17.80;;;;;;;7.74;100.00;102442.72;4933615;28;20047;-80
2021/09/22 03:21:02;;;;;;;26.90;17.58;;;;;;;7.73;100.00;102441.88;4932295;28;20456;-79
2021/09/22 03:23:28;;;;;;;27.42;17.38;;;;;;;7.73;100.00;102436.53;4940037;28;20063;-83
2021/09/22 03:25:53;;;;;;;26.45;15.82;;;;;;;7.71;100.00;102441.16;4935962;28;20067;-79
2021/09/22 03:28:19;;;;;;;30.95;17.95;;;;;;;7.68;100.00;102444.00;4943401;28;20445;-81
2021/09/22 03:30:44;;;;;;;29.08;18.48;;;;;;;7.69;100.00;102443.06;4942588;28;20090;-81
2021/09/22 03:33:10;;;;;;;27.55;17.48;;;;;;;7.66;100.00;102448.63;4944582;28;20039;-79
2021/09/22 03:35:36;;;;;;;28.05;18.48;;;;;;;7.66;100.00;102451.28;4934922;28;20412;-80
2021/09/22 03:38:02;;;;;;;27.77;17.08;;;;;;;7.67;100.00;102447.66;4942226;28;20043;-80
2021/09/22 03:40:28;;;;;;;26.23;17.08;;;;;;;7.64;100.00;102446.03;4935270;28;20079;-84
2021/09/22 03:42:55;;;;;;;30.75;18.15;;;;;;;7.62;100.00;102448.00;4943141;28;20082;-80
2021/09/22 03:45:20;;;;;;;31.17;19.70;;;;;;;7.62;100.00;102455.13;4952127;28;20610;-80
2021/09/22 03:47:46;;;;;;;32.58;20.48;;;;;;;7.60;100.00;102457.91;4945741;28;20134;-80
2021/09/22 03:50:11;;;;;;;28.58;18.95;;;;;;;7.61;100.00;102458.75;4945119;28;20055;-82
2021/09/22 03:52:37;;;;;;;29.95;19.40;;;;;;;7.60;100.00;102465.09;4937119;28;20071;-80
2021/09/22 03:55:03;;;;;;;31.25;20.00;;;;;;;7.56;100.00;102466.22;4928626;28;20502;-83
2021/09/22 03:57:29;;;;;;;35.20;21.58;;;;;;;7.55;100.00;102469.88;4934714;28;20090;-79
2021/09/22 03:59:54;;;;;;;32.25;20.00;;;;;;;7.52;100.00;102470.06;4943066;28;20043;-80
2021/09/22 04:02:20;;;;;;;33.85;20.23;;;;;;;7.52;100.00;102470.06;4948446;28;20057;-80
2021/09/22 04:04:46;;;;;;;33.55;20.98;;;;;;;7.53;100.00;102466.44;4930696;29;20073;-79
2021/09/22 04:07:11;;;;;;;33.38;20.35;;;;;;;7.51;100.00;102457.66;4939987;28;20074;-81
2021/09/22 04:09:36;;;;;;;31.85;20.17;;;;;;;7.51;100.00;102452.31;4939836;28;20134;-80
2021/09/22 04:12:02;;;;;;;32.17;21.88;;;;;;;7.49;100.00;102454.25;4935527;28;20046;-80
2021/09/22 04:14:27;;;;;;;33.20;20.95;;;;;;;7.45;100.00;102454.47;4934178;28;20395;-83
2021/09/22 04:16:53;;;;;;;34.17;20.58;;;;;;;7.46;100.00;102469.53;4929808;28;20066;-84
2021/09/22 04:19:18;;;;;;;38.05;20.73;;;;;;;7.43;100.00;102467.06;4929165;28;20043;-80
2021/09/22 04:21:44;;;;;;;35.55;21.55;;;;;;;7.46;100.00;102464.19;4923138;28;20395;-81
2021/09/22 04:24:10;;;;;;;34.08;20.13;;;;;;;7.44;100.00;102466.09;4935277;28;20102;-79
2021/09/22 04:26:36;;;;;;;31.95;21.20;;;;;;;7.43;100.00;102461.72;4941486;28;20053;-79
2021/09/22 04:29:02;;;;;;;33.55;21.25;;;;;;;7.46;100.00;102452.66;4939360;28;20557;-83
2021/09/22 04:31:27;;;;;;;32.33;21.50;;;;;;;7.43;100.00;102455.53;4929475;28;20039;-81
2021/09/22 04:33:52;;;;;;;35.88;21.30;;;;;;;7.43;100.00;102451.03;4920996;29;20170;-83
2021/09/22 04:36:18;;;;;;;32.38;20.20;;;;;;;7.44;100.00;102446.53;4932031;28;20094;-79
2021/09/22 04:38:44;;;;;;;34.28;21.27;;;;;;;7.45;100.00;102448.25;4933653;28;20043;-79
2021/09/22 04:41:09;;;;;;;36.05;21.83;;;;;;;7.44;100.00;102442.06;4932782;28;20046;-80
2021/09/22 04:43:35;;;;;;;36.20;21.83;;;;;;;7.40;100.00;102445.91;4929848;28;22269;-81
2021/09/22 04:46:01;;;;;;;32.35;21.85;;;;;;;7.39;100.00;102449.53;4936412;28;20054;-81
2021/09/22 04:48:26;;;;;;;36.70;22.90;;;;;;;7.37;100.00;102451.44;4935840;28;20478;-80
2021/09/22 04:50:52;;;;;;;36.38;23.02;;;;;;;7.36;100.00;102463.06;4934661;28;20047;-83
2021/09/22 04:53:17;;;;;;;37.22;22.65;;;;;;;7.33;100.00;102463.28;4912923;28;20479;-82
2021/09/22 04:55:43;;;;;;;34.63;22.05;;;;;;;7.37;100.00;102471.97;4937176;28;20576;-80
2021/09/22 04:58:08;;;;;;;35.83;22.17;;;;;;;7.39;100.00;102470.03;4918126;28;20174;-80
2021/09/22 05:00:34;;;;;;;35.63;22.25;;;;;;;7.41;100.00;102470.78;4921273;28;20064;-80
2021/09/22 05:02:59;;;;;;;40.65;23.45;;;;;;;7.37;100.00;102471.97;4920827;28;20036;-81
2021/09/22 05:05:25;;;;;;;39.00;22.45;;;;;;;7.38;100.00;102481.69;4925381;28;20078;-82
2021/09/22 05:07:50;;;;;;;36.72;22.13;;;;;;;7.34;100.00;102480.19;4938177;28;20097;-80
2021/09/22 05:10:16;;;;;;;37.35;23.10;;;;;;;7.30;100.00;102481.34;4939440;28;20059;-84
2021/09/22 05:12:41;;;;;;;35.38;22.30;;;;;;;7.32;100.00;102480.28;4932819;28;20071;-80
2021/09/22 05:15:07;;;;;;;35.60;23.40;;;;;;;7.35;100.00;102482.75;4939055;28;20058;-79
2021/09/22 05:17:33;;;;;;;36.85;23.35;;;;;;;7.33;100.00;102483.78;4943163;28;20067;-81
2021/09/22 05:19:58;;;;;;;37.72;23.35;;;;;;;7.32;100.00;102485.63;4928355;28;20475;-79
2021/09/22 05:22:24;;;;;;;41.45;23.30;;;;;;;7.34;100.00;102493.53;4937089;28;20047;-82
2021/09/22 05:24:49;;;;;;;37.35;22.20;;;;;;;7.34;100.00;102494.41;4933277;28;20494;-80
2021/09/22 05:27:14;;;;;;;35.83;23.08;;;;;;;7.35;100.00;102498.75;4933129;28;20050;-79
2021/09/22 05:29:40;;;;;;;41.05;24.77;;;;;;;7.34;100.00;102499.72;4937493;28;20077;-79
2021/09/22 05:32:06;;;;;;;38.45;23.67;;;;;;;7.35;100.00;102505.94;4936676;28;20051;-79
2021/09/22 05:34:31;;;;;;;40.65;24.23;;;;;;;7.34;100.00;102486.38;4939938;28;20062;-82
2021/09/22 05:36:57;;;;;;;41.05;24.77;;;;;;;7.32;100.00;102490.09;4936035;28;20047;-79
2021/09/22 05:39:22;;;;;;;38.53;23.67;;;;;;;7.33;100.00;102489.13;4932144;28;20039;-82
2021/09/22 05:41:48;;;;;;;43.08;25.05;;;;;;;7.35;100.00;102495.25;4931985;28;20052;-78
2021/09/22 05:44:13;;;;;;;43.45;24.95;;;;;;;7.35;100.00;102501.44;4939225;28;20055;-81
2021/09/22 05:46:39;;;;;;;43.72;26.13;;;;;;;7.36;100.00;102496.94;4932910;28;20048;-79
2021/09/22 05:49:06;;;;;;;44.75;24.27;;;;;;;7.35;100.00;102504.09;4940017;28;20051;-82
2021/09/22 05:51:32;;;;;;;42.55;25.20;;;;;;;7.37;100.00;102496.00;4943554;28;20043;-79
2021/09/22 05:53:58;;;;;;;42.88;25.67;;;;;;;7.41;100.00;102500.19;4943455;28;20047;-81
2021/09/22 05:56:24;;;;;;;43.15;26.25;;;;;;;7.44;100.00;102505.31;4944903;28;20054;-79
2021/09/22 05:58:49;;;;;;;43.33;25.08;;;;;;;7.45;100.00;102497.22;4934795;28;20413;-78
2021/09/22 06:01:14;;;;;;;43.03;26.10;;;;;;;7.52;100.00;102496.78;4943854;28;20058;-78
2021/09/22 06:03:41;;;;;;;47.40;28.42;;;;;;;7.52;100.00;102492.31;4946086;28;20147;-78
2021/09/22 06:06:06;;;;;;;46.70;27.83;;;;;;;7.57;100.00;102489.34;4940387;28;20039;-79
2021/09/22 06:08:32;;;;;;;49.80;28.15;;;;;;;7.65;100.00;102493.19;4939123;28;20051;-79
2021/09/22 06:10:58;;;;;;;50.13;27.23;;;;;;;7.71;100.00;102497.28;4937442;28;20142;-80
2021/09/22 06:13:24;;;;;;;49.40;29.00;;;;;;;7.75;100.00;102485.41;4935968;28;20052;-84
2021/09/22 06:15:51;;;;;;;50.55;29.48;;;;;;;7.81;100.00;102494.81;4945117;28;20101;-80
2021/09/22 06:18:17;;;;;;;51.38;30.90;;;;;;;7.84;100.00;102494.59;4925773;28;20051;-79
2021/09/22 06:20:43;;;;;;;53.70;29.55;;;;;;;7.88;100.00;102491.63;4939021;28;20047;-78
2021/09/22 06:23:08;;;;;;;57.47;29.50;;;;;;;7.96;100.00;102492.91;4931819;28;20052;-79
2021/09/22 06:25:34;;;;;;;51.83;31.15;;;;;;;8.03;100.00;102497.72;4946168;28;20043;-79
2021/09/22 06:27:59;;;;;;;50.38;29.63;;;;;;;8.12;100.00;102496.25;4943331;28;20173;-83
2021/09/22 06:30:25;;;;;;;47.75;29.90;;;;;;;8.20;100.00;102495.69;4945501;28;20059;-80
2021/09/22 06:32:51;;;;;;;50.40;29.65;;;;;;;8.28;100.00;102496.84;4934602;28;20039;-80
2021/09/22 06:35:17;;;;;;;53.42;29.05;;;;;;;8.34;100.00;102496.47;4935252;28;20047;-79
2021/09/22 06:37:45;;;;;;;54.92;30.17;;;;;;;8.44;100.00;102501.19;4938761;28;20059;-80
2021/09/22 06:40:11;;;;;;;59.40;33.13;;;;;;;8.54;100.00;102502.22;4935838;28;20537;-79
2021/09/22 06:42:36;;;;;;;66.75;36.20;;;;;;;8.68;100.00;102498.56;4938575;28;20055;-80
2021/09/22 06:45:02;;;;;;;63.30;38.65;;;;;;;8.81;100.00;102505.59;4938581;28;20039;-84
2021/09/22 06:47:28;;;;;;;69.10;38.25;;;;;;;8.95;100.00;102498.41;4937809;28;20061;-81
2021/09/22 06:49:54;;;;;;;79.45;46.10;;;;;;;9.09;100.00;102506.28;4939000;28;20491;-82
2021/09/22 06:52:20;;;;;;;93.35;52.60;;;;;;;9.25;100.00;102504.16;4926899;28;20313;-80
2021/09/22 06:54:46;;;;;;;92.25;50.13;;;;;;;9.40;100.00;102507.50;4938553;28;20118;-81
2021/09/22 06:57:11;;;;;;;93.05;49.08;;;;;;;9.55;100.00;102507.34;4939276;29;20056;-79
2021/09/22 06:59:36;;;;;;;93.53;52.63;;;;;;;9.67;100.00;102511.78;4937511;28;20114;-82
2021/09/22 07:02:02;;;;;;;104.88;53.70;;;;;;;9.80;100.00;102509.88;4946281;28;20043;-80
2021/09/22 07:04:28;;;;;;;99.93;53.72;;;;;;;9.91;100.00;102514.41;4937276;28;20051;-84
2021/09/22 07:06:53;;;;;;;101.95;53.92;;;;;;;10.05;100.00;102514.19;4928797;28;20054;-82
2021/09/22 07:09:19;;;;;;;98.72;52.83;;;;;;;10.10;100.00;102522.75;4932009;28;20047;-79
2021/09/22 07:11:44;;;;;;;98.53;54.67;;;;;;;10.22;100.00;102531.66;4937415;28;20134;-82
2021/09/22 07:14:10;;;;;;;96.78;58.33;;;;;;;10.29;100.00;102524.88;4936866;28;20049;-80
2021/09/22 07:16:35;;;;;;;99.93;56.53;;;;;;;10.39;100.00;102519.66;4935195;28;20503;-83
2021/09/22 07:19:00;;;;;;;102.90;57.45;;;;;;;10.52;100.00;102516.84;4926184;28;20051;-81
2021/09/22 07:21:26;;;;;;;104.20;58.75;;;;;;;10.64;100.00;102520.38;4935483;28;20608;-80
2021/09/22 07:23:51;;;;;;;104.75;60.20;;;;;;;10.74;100.00;102521.34;4940055;28;20089;-80
2021/09/22 07:26:18;;;;;;;100.63;54.92;;;;;;;10.83;100.00;102515.25;4932935;28;20566;-80
2021/09/22 07:28:43;;;;;;;105.18;59.13;;;;;;;10.92;100.00;102513.63;4945910;28;20074;-84
2021/09/22 07:31:09;;;;;;;109.18;62.90;;;;;;;11.03;100.00;102522.53;4936638;28;20067;-80
2021/09/22 07:33:35;;;;;;;107.82;60.35;;;;;;;11.15;100.00;102519.81;4935249;28;20043;-79
2021/09/22 07:36:02;;;;;;;96.05;57.45;;;;;;;11.25;100.00;102512.72;4933739;28;20450;-79
2021/09/22 07:38:27;;;;;;;100.90;58.58;;;;;;;11.32;100.00;102515.75;4927008;28;20555;-80
2021/09/22 07:40:53;;;;;;;101.35;59.45;;;;;;;11.43;100.00;102519.25;4945030;28;20043;-80
2021/09/22 07:43:19;;;;;;;98.25;60.80;;;;;;;11.55;100.00;102512.00;4942815;28;20059;-79
2021/09/22 07:45:45;;;;;;;98.97;57.13;;;;;;;11.68;100.00;102517.16;4947304;28;20070;-83
2021/09/22 07:48:10;;;;;;;95.18;56.67;;;;;;;11.73;100.00;102521.19;4945331;28;20074;-79
2021/09/22 07:50:36;;;;;;;91.28;57.58;;;;;;;11.75;100.00;102513.84;4945565;28;20079;-80
2021/09/22 07:53:01;;;;;;;90.95;57.42;;;;;;;11.83;100.00;102513.19;4944513;28;20055;-80
2021/09/22 07:55:27;;;;;;;92.72;58.20;;;;;;;11.91;100.00;102515.25;4944158;28;20051;-83
2021/09/22 07:57:55;;;;;;;90.07;55.25;;;;;;;12.03;99.74;102506.16;4942873;28;20051;-81
2021/09/22 08:00:22;;;;;;;92.28;56.63;;;;;;;12.18;100.00;102507.50;4944199;28;20857;-81
2021/09/22 08:02:48;;;;;;;88.28;55.35;;;;;;;12.22;99.94;102505.38;4942468;28;20206;-80
2021/09/22 08:05:14;;;;;;;89.30;58.50;;;;;;;12.36;99.97;102506.88;4935177;28;20532;-81
2021/09/22 08:07:40;;;;;;;85.13;58.70;;;;;;;12.46;97.87;102509.59;4936810;28;20047;-80
2021/09/22 08:10:06;;;;;;;87.63;58.45;;;;;;;12.56;99.18;102500.59;4941913;28;20078;-81
2021/09/22 08:12:31;;;;;;;78.25;56.05;;;;;;;12.62;97.95;102507.28;4942263;28;20551;-81
2021/09/22 08:14:58;;;;;;;81.45;57.13;;;;;;;12.68;97.13;102490.56;4944128;28;20180;-80
2021/09/22 08:17:23;;;;;;;79.00;56.45;;;;;;;12.80;97.47;102492.19;4945664;28;20062;-82
2021/09/22 08:19:49;;;;;;;81.07;54.22;;;;;;;12.93;97.91;102488.38;4937318;28;20047;-79
2021/09/22 08:22:15;;;;;;;82.10;54.22;;;;;;;13.00;98.07;102481.44;4915465;28;20043;-83
2021/09/22 08:24:40;;;;;;;77.25;55.35;;;;;;;13.12;95.96;102484.84;4924788;28;20051;-81
2021/09/22 08:27:06;;;;;;;73.07;48.15;;;;;;;13.20;97.71;102482.31;4939808;28;20114;-79
2021/09/22 08:29:32;;;;;;;71.47;52.05;;;;;;;13.34;97.25;102475.69;4942841;28;20489;-80
2021/09/22 08:31:58;;;;;;;75.53;51.38;;;;;;;13.44;96.02;102477.41;4948209;28;20039;-80
2021/09/22 08:34:24;;;;;;;71.15;50.67;;;;;;;13.53;95.44;102478.41;4936609;28;20051;-85
2021/09/22 08:36:50;;;;;;;67.90;50.35;;;;;;;13.60;94.13;102475.97;4936923;28;20055;-80
2021/09/22 08:39:16;;;;;;;69.22;49.35;;;;;;;13.66;94.02;102476.25;4934782;28;20754;-81
2021/09/22 08:41:43;;;;;;;67.63;53.33;;;;;;;13.79;93.75;102472.41;4935934;28;20039;-80
2021/09/22 08:44:10;;;;;;;71.38;49.72;;;;;;;13.92;94.28;102473.78;4931312;28;20051;-80
2021/09/22 08:46:38;;;;;;;67.97;51.30;;;;;;;13.92;93.08;102481.03;4941398;28;20047;-85
2021/09/22 08:49:04;;;;;;;68.57;51.83;;;;;;;13.98;94.05;102473.22;4945344;28;20086;-81
2021/09/22 08:51:31;;;;;;;69.13;51.75;;;;;;;14.07;92.83;102485.00;4940982;28;20043;-80
2021/09/22 08:53:57;;;;;;;68.60;52.47;;;;;;;14.13;93.23;102487.09;4920078;28;20043;-80
2021/09/22 08:56:24;;;;;;;69.15;50.22;;;;;;;14.27;92.78;102493.00;4934474;28;20047;-81
2021/09/22 08:58:52;;;;;;;63.72;48.35;;;;;;;14.42;92.26;102486.16;4939926;28;20078;-84
2021/09/22 09:01:21;;;;;;;62.40;47.13;;;;;;;14.54;91.95;102487.69;4933669;28;20123;-81
2021/09/22 09:03:49;;;;;;;59.80;44.25;;;;;;;14.60;91.92;102480.84;4936899;28;20093;-85
2021/09/22 09:06:19;;;;;;;58.88;42.30;;;;;;;14.64;90.66;102479.53;4935225;28;20057;-82
2021/09/22 09:08:46;;;;;;;58.40;41.90;;;;;;;14.64;91.34;102487.63;4932371;28;20047;-80
2021/09/22 09:11:12;;;;;;;60.20;42.50;;;;;;;14.69;90.89;102473.69;4935969;28;20051;-80
2021/09/22 09:13:52;;;;;;;50.70;39.70;;;;;;;14.81;89.53;102475.16;4939458;28;20063;-80
2021/09/22 09:16:18;;;;;;;52.67;38.58;;;;;;;14.89;89.88;102469.88;4933140;28;20442;-82
2021/09/22 09:18:53;;;;;;;50.15;39.65;;;;;;;14.94;88.38;102472.97;4934157;28;20146;-81
2021/09/22 09:21:20;;;;;;;47.80;35.85;;;;;;;15.02;89.18;102464.09;4924658;28;20052;-80
2021/09/22 09:23:57;;;;;;;44.70;33.55;;;;;;;15.03;87.40;102460.38;4935867;28;20058;-83
2021/09/22 09:26:28;;;;;;;45.15;33.20;;;;;;;15.05;87.97;102459.22;4938168;28;20054;-83
2021/09/22 09:28:55;;;;;;;45.10;31.00;;;;;;;15.06;87.80;102458.22;4938237;28;20050;-81
2021/09/22 09:31:28;;;;;;;45.88;32.70;;;;;;;15.10;87.95;102456.94;4936271;28;20058;-81
2021/09/22 09:33:58;;;;;;;40.50;31.95;;;;;;;15.20;87.84;102447.88;4935707;28;20098;-80
2021/09/22 09:36:26;;;;;;;40.30;29.35;;;;;;;15.31;87.02;102453.06;4945429;28;20035;-82
2021/09/22 09:39:08;;;;;;;40.25;29.63;;;;;;;15.37;85.88;102452.44;4948228;28;20520;-80
2021/09/22 09:41:40;;;;;;;38.72;30.58;;;;;;;15.39;86.16;102455.81;4936780;28;20051;-80
2021/09/22 09:44:08;;;;;;;38.95;30.63;;;;;;;15.41;86.04;102448.41;4939345;28;20122;-80
2021/09/22 09:46:34;;;;;;;36.47;27.93;;;;;;;15.49;85.81;102444.94;4935119;28;20145;-81
2021/09/22 09:49:16;;;;;;;35.38;27.55;;;;;;;15.57;85.29;102448.56;4936611;28;20078;-80
2021/09/22 09:51:47;;;;;;;34.90;26.70;;;;;;;15.61;85.46;102440.13;4927759;28;20058;-81
2021/09/22 09:54:18;;;;;;;33.67;26.77;;;;;;;15.74;85.19;102437.88;4945084;28;20079;-83
2021/09/22 09:56:45;;;;;;;35.10;27.40;;;;;;;15.85;85.53;102437.59;4936595;28;20055;-81
2021/09/22 09:59:12;;;;;;;36.53;26.17;;;;;;;15.79;84.89;102435.53;4937267;28;20039;-80
2021/09/22 10:01:43;;;;;;;36.10;27.77;;;;;;;15.80;85.29;102437.25;4938194;28;20077;-86
2021/09/22 10:04:11;;;;;;;37.35;28.17;;;;;;;15.81;85.53;102441.66;4929263;28;20070;-81
2021/09/22 10:06:38;;;;;;;36.35;28.13;;;;;;;15.87;85.09;102438.31;4944323;28;20078;-80
2021/09/22 10:09:04;;;;;;;36.33;27.13;;;;;;;15.94;85.34;102449.31;4936039;28;20055;-82
2021/09/22 10:11:32;;;;;;;39.85;28.35;;;;;;;16.06;85.13;102436.41;4946536;28;20114;-81
2021/09/22 10:13:59;;;;;;;34.33;25.05;;;;;;;16.19;84.11;102436.78;4930938;28;20047;-81
2021/09/22 10:16:27;;;;;;;31.42;24.10;;;;;;;16.24;85.18;102431.75;4936162;28;20051;-82
2021/09/22 10:18:54;;;;;;;33.15;24.95;;;;;;;16.39;84.35;102429.28;4938115;28;20513;-81
2021/09/22 10:21:20;;;;;;;35.40;25.70;;;;;;;16.48;83.24;102431.00;4937643;28;20059;-82
2021/09/22 10:23:49;;;;;;;32.90;25.15;;;;;;;16.55;84.31;102414.94;4932976;28;20056;-83
2021/09/22 10:26:15;;;;;;;32.47;23.90;;;;;;;16.70;84.99;102424.13;4936120;28;20110;-81
2021/09/22 10:28:45;;;;;;;29.73;24.17;;;;;;;16.82;83.74;102420.13;4936746;28;20695;-81
2021/09/22 10:31:29;;;;;;;31.30;23.88;;;;;;;16.93;84.28;102421.69;4933680;28;20119;-82
2021/09/22 10:33:56;;;;;;;35.05;25.67;;;;;;;16.97;82.72;102419.47;4927149;28;20482;-80
2021/09/22 10:36:34;;;;;;;32.10;25.13;;;;;;;16.87;83.09;102408.78;4937790;28;20044;-84
2021/09/22 10:39:00;;;;;;;33.72;24.27;;;;;;;16.88;83.09;102418.63;4959756;28;20398;-85
2021/09/22 10:41:29;;;;;;;30.00;23.40;;;;;;;16.83;82.09;102419.13;4934419;28;20051;-84
2021/09/22 10:43:55;;;;;;;33.40;25.35;;;;;;;16.83;83.68;102410.13;4931506;28;20268;-82
2021/09/22 10:46:21;;;;;;;30.52;24.33;;;;;;;16.96;84.16;102402.38;4946211;28;20482;-85
2021/09/22 10:48:49;;;;;;;32.58;24.63;;;;;;;17.10;83.60;102398.16;4945165;28;20051;-82
2021/09/22 10:51:27;;;;;;;28.40;21.73;;;;;;;17.05;81.21;102392.38;4948125;28;20394;-87
2021/09/22 10:54:10;;;;;;;27.92;23.00;;;;;;;17.15;82.69;102406.63;4948266;28;20275;-83
2021/09/22 10:56:51;;;;;;;33.00;22.77;;;;;;;17.13;81.82;102405.94;4947084;28;20055;-85
2021/09/22 10:59:30;;;;;;;28.40;22.63;;;;;;;17.19;82.67;102407.97;4944973;28;20042;-82
2021/09/22 11:01:56;;;;;;;27.02;21.67;;;;;;;17.32;82.29;102402.03;4937522;28;20047;-82
2021/09/22 11:04:22;;;;;;;27.90;21.70;;;;;;;17.37;80.62;102395.09;4935410;28;20493;-82
2021/09/22 11:06:53;;;;;;;26.88;19.55;;;;;;;17.32;79.56;102402.91;4935033;28;20047;-85